sensor_id;sensor_type;location;lat;lon;timestamp;P1;durP1;ratioP1;P2;durP2;ratioP2
54539;SDS011;40438;52.992;18.604;2023-02-18T00:02:02;6.47;;;2.10;;
54539;SDS011;40438;52.992;18.604;2023-02-18T00:04:28;5.30;;;2.28;;
54539;SDS011;40438;52.992;18.604;2023-02-18T00:06:55;5.43;;;2.05;;
54539;SDS011;40438;52.992;18.604;2023-02-18T00:09:21;6.18;;;2.15;;
54539;SDS011;40438;52.992;18.604;2023-02-18T00:11:47;4.20;;;1.88;;
54539;SDS011;40438;52.992;18.604;2023-02-18T00:14:13;4.25;;;1.98;;
54539;SDS011;40438;52.992;18.604;2023-02-18T00:16:40;5.40;;;1.70;;
54539;SDS011;40438;52.992;18.604;2023-02-18T00:19:07;8.02;;;1.77;;
54539;SDS011;40438;52.992;18.604;2023-02-18T00:21:35;4.43;;;1.65;;
54539;SDS011;40438;52.992;18.604;2023-02-18T00:24:03;3.30;;;1.92;;
54539;SDS011;40438;52.992;18.604;2023-02-18T00:26:30;3.42;;;1.70;;
54539;SDS011;40438;52.992;18.604;2023-02-18T00:28:56;5.18;;;1.67;;
54539;SDS011;40438;52.992;18.604;2023-02-18T00:31:23;6.78;;;2.05;;
54539;SDS011;40438;52.992;18.604;2023-02-18T00:33:50;3.17;;;1.42;;
54539;SDS011;40438;52.992;18.604;2023-02-18T00:36:17;4.75;;;1.75;;
54539;SDS011;40438;52.992;18.604;2023-02-18T00:38:44;4.53;;;1.55;;
54539;SDS011;40438;52.992;18.604;2023-02-18T00:41:11;3.97;;;1.67;;
54539;SDS011;40438;52.992;18.604;2023-02-18T00:43:37;3.95;;;1.50;;
54539;SDS011;40438;52.992;18.604;2023-02-18T00:46:03;4.30;;;1.75;;
54539;SDS011;40438;52.992;18.604;2023-02-18T00:48:30;3.47;;;1.45;;
54539;SDS011;40438;52.992;18.604;2023-02-18T00:50:56;6.68;;;1.92;;
54539;SDS011;40438;52.992;18.604;2023-02-18T00:53:22;3.63;;;1.58;;
54539;SDS011;40438;52.992;18.604;2023-02-18T00:55:48;3.30;;;1.42;;
54539;SDS011;40438;52.992;18.604;2023-02-18T00:58:15;4.43;;;1.50;;
54539;SDS011;40438;52.992;18.604;2023-02-18T01:00:41;4.47;;;1.67;;
54539;SDS011;40438;52.992;18.604;2023-02-18T01:03:07;4.55;;;2.00;;
54539;SDS011;40438;52.992;18.604;2023-02-18T01:05:33;4.53;;;1.45;;
54539;SDS011;40438;52.992;18.604;2023-02-18T01:07:59;6.57;;;1.90;;
54539;SDS011;40438;52.992;18.604;2023-02-18T01:10:25;5.00;;;1.48;;
54539;SDS011;40438;52.992;18.604;2023-02-18T01:12:50;4.85;;;1.30;;
54539;SDS011;40438;52.992;18.604;2023-02-18T01:15:18;3.08;;;1.50;;
54539;SDS011;40438;52.992;18.604;2023-02-18T01:17:44;4.40;;;1.60;;
54539;SDS011;40438;52.992;18.604;2023-02-18T01:20:10;4.53;;;1.30;;
54539;SDS011;40438;52.992;18.604;2023-02-18T01:22:37;4.03;;;1.75;;
54539;SDS011;40438;52.992;18.604;2023-02-18T01:25:06;4.13;;;1.40;;
54539;SDS011;40438;52.992;18.604;2023-02-18T01:27:32;5.05;;;1.40;;
54539;SDS011;40438;52.992;18.604;2023-02-18T01:30:00;6.80;;;1.35;;
54539;SDS011;40438;52.992;18.604;2023-02-18T01:32:27;4.07;;;1.52;;
54539;SDS011;40438;52.992;18.604;2023-02-18T01:34:53;3.85;;;1.33;;
54539;SDS011;40438;52.992;18.604;2023-02-18T01:37:19;4.40;;;1.60;;
54539;SDS011;40438;52.992;18.604;2023-02-18T01:39:44;3.15;;;1.50;;
54539;SDS011;40438;52.992;18.604;2023-02-18T01:42:15;3.90;;;1.08;;
54539;SDS011;40438;52.992;18.604;2023-02-18T01:44:45;6.20;;;1.45;;
54539;SDS011;40438;52.992;18.604;2023-02-18T01:47:11;4.15;;;1.95;;
54539;SDS011;40438;52.992;18.604;2023-02-18T01:49:38;6.30;;;1.27;;
54539;SDS011;40438;52.992;18.604;2023-02-18T01:52:05;3.70;;;1.38;;
54539;SDS011;40438;52.992;18.604;2023-02-18T01:54:35;3.88;;;1.25;;
54539;SDS011;40438;52.992;18.604;2023-02-18T01:57:05;4.38;;;1.30;;
54539;SDS011;40438;52.992;18.604;2023-02-18T01:59:32;3.97;;;1.20;;
54539;SDS011;40438;52.992;18.604;2023-02-18T02:02:02;4.97;;;1.10;;
54539;SDS011;40438;52.992;18.604;2023-02-18T02:04:30;5.40;;;1.40;;
54539;SDS011;40438;52.992;18.604;2023-02-18T02:06:57;5.40;;;1.60;;
54539;SDS011;40438;52.992;18.604;2023-02-18T02:09:23;4.53;;;1.27;;
54539;SDS011;40438;52.992;18.604;2023-02-18T02:12:01;4.78;;;1.23;;
54539;SDS011;40438;52.992;18.604;2023-02-18T02:14:53;3.83;;;1.33;;
54539;SDS011;40438;52.992;18.604;2023-02-18T02:17:36;3.35;;;1.10;;
54539;SDS011;40438;52.992;18.604;2023-02-18T02:23:47;4.75;;;1.42;;
54539;SDS011;40438;52.992;18.604;2023-02-18T02:32:33;3.72;;;1.02;;
54539;SDS011;40438;52.992;18.604;2023-02-18T02:35:18;4.28;;;1.33;;
54539;SDS011;40438;52.992;18.604;2023-02-18T02:37:50;7.72;;;1.52;;
54539;SDS011;40438;52.992;18.604;2023-02-18T02:40:23;4.35;;;1.30;;
54539;SDS011;40438;52.992;18.604;2023-02-18T02:42:58;4.10;;;1.33;;
54539;SDS011;40438;52.992;18.604;2023-02-18T02:45:37;3.38;;;1.60;;
54539;SDS011;40438;52.992;18.604;2023-02-18T02:48:14;3.00;;;1.75;;
54539;SDS011;40438;52.992;18.604;2023-02-18T02:50:51;2.88;;;1.00;;
54539;SDS011;40438;52.992;18.604;2023-02-18T02:53:23;4.70;;;1.42;;
54539;SDS011;40438;52.992;18.604;2023-02-18T02:55:51;5.43;;;1.13;;
54539;SDS011;40438;52.992;18.604;2023-02-18T02:58:18;2.63;;;1.15;;
54539;SDS011;40438;52.992;18.604;2023-02-18T03:00:48;5.43;;;1.05;;
54539;SDS011;40438;52.992;18.604;2023-02-18T03:03:34;4.28;;;1.20;;
54539;SDS011;40438;52.992;18.604;2023-02-18T03:06:19;6.25;;;1.48;;
54539;SDS011;40438;52.992;18.604;2023-02-18T03:08:55;3.40;;;1.00;;
54539;SDS011;40438;52.992;18.604;2023-02-18T03:11:32;2.35;;;0.93;;
54539;SDS011;40438;52.992;18.604;2023-02-18T03:14:08;2.60;;;0.90;;
54539;SDS011;40438;52.992;18.604;2023-02-18T03:16:42;4.43;;;1.10;;
54539;SDS011;40438;52.992;18.604;2023-02-18T03:21:44;7.00;;;1.40;;
54539;SDS011;40438;52.992;18.604;2023-02-18T03:24:14;3.33;;;0.95;;
54539;SDS011;40438;52.992;18.604;2023-02-18T03:26:44;2.95;;;1.15;;
54539;SDS011;40438;52.992;18.604;2023-02-18T03:29:14;2.75;;;0.98;;
54539;SDS011;40438;52.992;18.604;2023-02-18T03:31:42;3.80;;;1.23;;
54539;SDS011;40438;52.992;18.604;2023-02-18T03:34:12;3.70;;;0.98;;
54539;SDS011;40438;52.992;18.604;2023-02-18T03:36:42;7.47;;;1.10;;
54539;SDS011;40438;52.992;18.604;2023-02-18T03:39:13;5.35;;;0.98;;
54539;SDS011;40438;52.992;18.604;2023-02-18T03:41:41;3.00;;;1.13;;
54539;SDS011;40438;52.992;18.604;2023-02-18T03:44:08;5.03;;;1.65;;
54539;SDS011;40438;52.992;18.604;2023-02-18T03:46:34;2.17;;;0.90;;
54539;SDS011;40438;52.992;18.604;2023-02-18T03:49:02;6.15;;;1.35;;
54539;SDS011;40438;52.992;18.604;2023-02-18T03:51:28;5.45;;;1.33;;
54539;SDS011;40438;52.992;18.604;2023-02-18T03:53:55;4.55;;;0.82;;
54539;SDS011;40438;52.992;18.604;2023-02-18T03:56:21;3.15;;;0.85;;
54539;SDS011;40438;52.992;18.604;2023-02-18T03:58:47;3.83;;;0.98;;
54539;SDS011;40438;52.992;18.604;2023-02-18T04:01:13;4.68;;;1.17;;
54539;SDS011;40438;52.992;18.604;2023-02-18T04:03:39;4.82;;;1.42;;
54539;SDS011;40438;52.992;18.604;2023-02-18T04:06:05;3.08;;;0.95;;
54539;SDS011;40438;52.992;18.604;2023-02-18T04:08:31;9.63;;;1.70;;
54539;SDS011;40438;52.992;18.604;2023-02-18T04:10:58;1.83;;;0.90;;
54539;SDS011;40438;52.992;18.604;2023-02-18T04:13:24;3.83;;;0.80;;
54539;SDS011;40438;52.992;18.604;2023-02-18T04:15:50;5.85;;;1.17;;
54539;SDS011;40438;52.992;18.604;2023-02-18T04:18:16;2.80;;;0.85;;
54539;SDS011;40438;52.992;18.604;2023-02-18T04:20:42;2.33;;;0.90;;
54539;SDS011;40438;52.992;18.604;2023-02-18T04:23:08;3.38;;;0.90;;
54539;SDS011;40438;52.992;18.604;2023-02-18T04:25:34;4.28;;;1.00;;
54539;SDS011;40438;52.992;18.604;2023-02-18T04:28:03;2.10;;;0.88;;
54539;SDS011;40438;52.992;18.604;2023-02-18T04:30:29;3.00;;;0.93;;
54539;SDS011;40438;52.992;18.604;2023-02-18T04:32:55;4.13;;;1.23;;
54539;SDS011;40438;52.992;18.604;2023-02-18T04:35:21;4.57;;;0.95;;
54539;SDS011;40438;52.992;18.604;2023-02-18T04:37:47;3.33;;;0.95;;
54539;SDS011;40438;52.992;18.604;2023-02-18T04:40:12;4.03;;;1.15;;
54539;SDS011;40438;52.992;18.604;2023-02-18T04:42:39;3.15;;;0.93;;
54539;SDS011;40438;52.992;18.604;2023-02-18T04:45:06;3.92;;;1.05;;
54539;SDS011;40438;52.992;18.604;2023-02-18T04:47:33;4.13;;;0.82;;
54539;SDS011;40438;52.992;18.604;2023-02-18T04:49:58;3.33;;;0.80;;
54539;SDS011;40438;52.992;18.604;2023-02-18T04:52:24;2.53;;;1.00;;
54539;SDS011;40438;52.992;18.604;2023-02-18T04:54:50;2.25;;;0.80;;
54539;SDS011;40438;52.992;18.604;2023-02-18T04:57:16;3.53;;;0.93;;
54539;SDS011;40438;52.992;18.604;2023-02-18T04:59:42;4.32;;;1.00;;
54539;SDS011;40438;52.992;18.604;2023-02-18T05:02:09;2.70;;;0.80;;
54539;SDS011;40438;52.992;18.604;2023-02-18T05:04:35;3.00;;;0.80;;
54539;SDS011;40438;52.992;18.604;2023-02-18T05:07:01;3.65;;;1.00;;
54539;SDS011;40438;52.992;18.604;2023-02-18T05:09:26;2.60;;;0.65;;
54539;SDS011;40438;52.992;18.604;2023-02-18T05:11:52;4.22;;;0.98;;
54539;SDS011;40438;52.992;18.604;2023-02-18T05:14:18;4.72;;;0.80;;
54539;SDS011;40438;52.992;18.604;2023-02-18T05:16:44;3.55;;;0.98;;
54539;SDS011;40438;52.992;18.604;2023-02-18T05:19:11;2.25;;;0.77;;
54539;SDS011;40438;52.992;18.604;2023-02-18T05:21:38;2.38;;;0.80;;
54539;SDS011;40438;52.992;18.604;2023-02-18T05:24:04;5.95;;;0.95;;
54539;SDS011;40438;52.992;18.604;2023-02-18T05:26:30;1.98;;;0.90;;
54539;SDS011;40438;52.992;18.604;2023-02-18T05:28:56;3.92;;;0.90;;
54539;SDS011;40438;52.992;18.604;2023-02-18T05:31:22;1.77;;;0.70;;
54539;SDS011;40438;52.992;18.604;2023-02-18T05:33:48;3.90;;;0.80;;
54539;SDS011;40438;52.992;18.604;2023-02-18T05:36:15;3.20;;;0.95;;
54539;SDS011;40438;52.992;18.604;2023-02-18T05:38:40;4.38;;;1.08;;
54539;SDS011;40438;52.992;18.604;2023-02-18T05:41:06;4.55;;;1.20;;
54539;SDS011;40438;52.992;18.604;2023-02-18T05:43:32;3.40;;;1.00;;
54539;SDS011;40438;52.992;18.604;2023-02-18T05:45:58;3.72;;;0.80;;
54539;SDS011;40438;52.992;18.604;2023-02-18T05:48:23;4.20;;;0.95;;
54539;SDS011;40438;52.992;18.604;2023-02-18T05:50:49;4.07;;;0.80;;
54539;SDS011;40438;52.992;18.604;2023-02-18T05:53:19;2.25;;;0.70;;
54539;SDS011;40438;52.992;18.604;2023-02-18T05:55:45;4.32;;;1.00;;
54539;SDS011;40438;52.992;18.604;2023-02-18T05:58:10;4.20;;;0.77;;
54539;SDS011;40438;52.992;18.604;2023-02-18T06:00:36;3.53;;;0.90;;
54539;SDS011;40438;52.992;18.604;2023-02-18T06:03:02;3.60;;;1.45;;
54539;SDS011;40438;52.992;18.604;2023-02-18T06:05:28;3.53;;;1.10;;
54539;SDS011;40438;52.992;18.604;2023-02-18T06:07:54;5.72;;;1.30;;
54539;SDS011;40438;52.992;18.604;2023-02-18T06:10:21;4.93;;;1.13;;
54539;SDS011;40438;52.992;18.604;2023-02-18T06:12:46;2.15;;;0.70;;
54539;SDS011;40438;52.992;18.604;2023-02-18T06:15:12;2.58;;;1.23;;
54539;SDS011;40438;52.992;18.604;2023-02-18T06:17:38;3.50;;;1.00;;
54539;SDS011;40438;52.992;18.604;2023-02-18T06:20:04;2.90;;;1.00;;
54539;SDS011;40438;52.992;18.604;2023-02-18T06:22:31;2.83;;;0.75;;
54539;SDS011;40438;52.992;18.604;2023-02-18T06:24:56;2.15;;;0.93;;
54539;SDS011;40438;52.992;18.604;2023-02-18T06:27:24;2.78;;;1.15;;
54539;SDS011;40438;52.992;18.604;2023-02-18T06:29:49;2.95;;;0.80;;
54539;SDS011;40438;52.992;18.604;2023-02-18T06:32:15;3.38;;;0.90;;
54539;SDS011;40438;52.992;18.604;2023-02-18T06:34:41;4.63;;;1.02;;
54539;SDS011;40438;52.992;18.604;2023-02-18T06:37:07;1.85;;;0.82;;
54539;SDS011;40438;52.992;18.604;2023-02-18T06:39:33;2.60;;;1.00;;
54539;SDS011;40438;52.992;18.604;2023-02-18T06:41:58;3.88;;;0.95;;
54539;SDS011;40438;52.992;18.604;2023-02-18T06:44:26;2.42;;;0.73;;
54539;SDS011;40438;52.992;18.604;2023-02-18T06:46:51;4.32;;;1.00;;
54539;SDS011;40438;52.992;18.604;2023-02-18T06:49:17;4.43;;;1.00;;
54539;SDS011;40438;52.992;18.604;2023-02-18T06:51:43;1.40;;;0.60;;
54539;SDS011;40438;52.992;18.604;2023-02-18T06:54:09;2.75;;;0.90;;
54539;SDS011;40438;52.992;18.604;2023-02-18T06:56:34;3.35;;;0.90;;
54539;SDS011;40438;52.992;18.604;2023-02-18T06:59:00;3.88;;;0.90;;
54539;SDS011;40438;52.992;18.604;2023-02-18T07:01:27;2.30;;;0.88;;
54539;SDS011;40438;52.992;18.604;2023-02-18T07:03:53;3.88;;;0.80;;
54539;SDS011;40438;52.992;18.604;2023-02-18T07:06:19;2.47;;;0.80;;
54539;SDS011;40438;52.992;18.604;2023-02-18T07:08:44;1.48;;;0.50;;
54539;SDS011;40438;52.992;18.604;2023-02-18T07:11:10;2.75;;;0.98;;
54539;SDS011;40438;52.992;18.604;2023-02-18T07:13:36;5.32;;;0.90;;
54539;SDS011;40438;52.992;18.604;2023-02-18T07:16:02;1.60;;;0.60;;
54539;SDS011;40438;52.992;18.604;2023-02-18T07:18:29;3.65;;;0.60;;
54539;SDS011;40438;52.992;18.604;2023-02-18T07:20:55;3.70;;;0.88;;
54539;SDS011;40438;52.992;18.604;2023-02-18T07:23:21;7.13;;;0.75;;
54539;SDS011;40438;52.992;18.604;2023-02-18T07:25:46;4.72;;;0.93;;
54539;SDS011;40438;52.992;18.604;2023-02-18T07:28:12;2.47;;;0.73;;
54539;SDS011;40438;52.992;18.604;2023-02-18T07:30:38;1.20;;;0.60;;
54539;SDS011;40438;52.992;18.604;2023-02-18T07:33:05;5.57;;;1.35;;
54539;SDS011;40438;52.992;18.604;2023-02-18T07:35:32;5.95;;;0.80;;
54539;SDS011;40438;52.992;18.604;2023-02-18T07:37:58;5.70;;;1.15;;
54539;SDS011;40438;52.992;18.604;2023-02-18T07:40:23;4.25;;;0.80;;
54539;SDS011;40438;52.992;18.604;2023-02-18T07:42:49;8.65;;;1.02;;
54539;SDS011;40438;52.992;18.604;2023-02-18T07:45:15;24.33;;;2.28;;
54539;SDS011;40438;52.992;18.604;2023-02-18T07:47:41;5.18;;;1.10;;
54539;SDS011;40438;52.992;18.604;2023-02-18T07:50:07;5.85;;;1.10;;
54539;SDS011;40438;52.992;18.604;2023-02-18T07:52:35;3.13;;;0.88;;
54539;SDS011;40438;52.992;18.604;2023-02-18T07:55:01;4.07;;;0.85;;
54539;SDS011;40438;52.992;18.604;2023-02-18T07:57:28;1.77;;;0.75;;
54539;SDS011;40438;52.992;18.604;2023-02-18T07:59:54;7.32;;;1.05;;
54539;SDS011;40438;52.992;18.604;2023-02-18T08:02:20;7.13;;;1.55;;
54539;SDS011;40438;52.992;18.604;2023-02-18T08:04:47;13.75;;;2.88;;
54539;SDS011;40438;52.992;18.604;2023-02-18T08:07:13;5.85;;;1.10;;
54539;SDS011;40438;52.992;18.604;2023-02-18T08:09:41;7.57;;;1.75;;
54539;SDS011;40438;52.992;18.604;2023-02-18T08:12:07;6.72;;;1.60;;
54539;SDS011;40438;52.992;18.604;2023-02-18T08:14:33;9.63;;;1.33;;
54539;SDS011;40438;52.992;18.604;2023-02-18T08:16:59;11.13;;;1.90;;
54539;SDS011;40438;52.992;18.604;2023-02-18T08:19:25;6.30;;;1.67;;
54539;SDS011;40438;52.992;18.604;2023-02-18T08:21:51;4.10;;;1.33;;
54539;SDS011;40438;52.992;18.604;2023-02-18T08:24:17;8.35;;;1.60;;
54539;SDS011;40438;52.992;18.604;2023-02-18T08:26:44;12.00;;;2.17;;
54539;SDS011;40438;52.992;18.604;2023-02-18T08:29:09;9.38;;;1.95;;
54539;SDS011;40438;52.992;18.604;2023-02-18T08:31:35;11.50;;;1.70;;
54539;SDS011;40438;52.992;18.604;2023-02-18T08:34:01;9.43;;;1.55;;
54539;SDS011;40438;52.992;18.604;2023-02-18T08:36:27;12.13;;;2.20;;
54539;SDS011;40438;52.992;18.604;2023-02-18T08:38:53;7.00;;;1.58;;
54539;SDS011;40438;52.992;18.604;2023-02-18T08:41:19;12.55;;;1.52;;
54539;SDS011;40438;52.992;18.604;2023-02-18T08:43:48;9.77;;;1.60;;
54539;SDS011;40438;52.992;18.604;2023-02-18T08:46:14;7.97;;;1.92;;
54539;SDS011;40438;52.992;18.604;2023-02-18T08:48:40;6.13;;;1.40;;
54539;SDS011;40438;52.992;18.604;2023-02-18T08:51:10;7.53;;;2.45;;
54539;SDS011;40438;52.992;18.604;2023-02-18T08:53:37;12.18;;;1.70;;
54539;SDS011;40438;52.992;18.604;2023-02-18T08:56:04;7.47;;;1.40;;
54539;SDS011;40438;52.992;18.604;2023-02-18T08:58:30;6.82;;;1.90;;
54539;SDS011;40438;52.992;18.604;2023-02-18T09:00:59;6.50;;;1.42;;
54539;SDS011;40438;52.992;18.604;2023-02-18T09:03:25;11.75;;;1.70;;
54539;SDS011;40438;52.992;18.604;2023-02-18T09:05:51;10.18;;;1.63;;
54539;SDS011;40438;52.992;18.604;2023-02-18T09:08:17;15.05;;;2.10;;
54539;SDS011;40438;52.992;18.604;2023-02-18T09:10:43;11.02;;;2.47;;
54539;SDS011;40438;52.992;18.604;2023-02-18T09:13:09;16.20;;;2.20;;
54539;SDS011;40438;52.992;18.604;2023-02-18T09:15:34;9.98;;;1.55;;
54539;SDS011;40438;52.992;18.604;2023-02-18T09:18:02;14.15;;;1.73;;
54539;SDS011;40438;52.992;18.604;2023-02-18T09:20:27;13.93;;;1.88;;
54539;SDS011;40438;52.992;18.604;2023-02-18T09:22:53;12.68;;;1.90;;
54539;SDS011;40438;52.992;18.604;2023-02-18T09:25:19;11.35;;;2.10;;
54539;SDS011;40438;52.992;18.604;2023-02-18T09:27:45;19.02;;;2.00;;
54539;SDS011;40438;52.992;18.604;2023-02-18T09:30:11;11.20;;;2.33;;
54539;SDS011;40438;52.992;18.604;2023-02-18T09:32:37;7.50;;;2.15;;
54539;SDS011;40438;52.992;18.604;2023-02-18T09:35:04;14.90;;;2.13;;
54539;SDS011;40438;52.992;18.604;2023-02-18T09:37:30;9.75;;;1.83;;
54539;SDS011;40438;52.992;18.604;2023-02-18T09:39:56;9.98;;;1.70;;
54539;SDS011;40438;52.992;18.604;2023-02-18T09:42:23;5.35;;;1.52;;
54539;SDS011;40438;52.992;18.604;2023-02-18T09:44:54;12.90;;;2.70;;
54539;SDS011;40438;52.992;18.604;2023-02-18T09:47:24;4.60;;;1.50;;
54539;SDS011;40438;52.992;18.604;2023-02-18T09:49:56;7.47;;;1.52;;
54539;SDS011;40438;52.992;18.604;2023-02-18T09:52:26;8.38;;;1.52;;
54539;SDS011;40438;52.992;18.604;2023-02-18T09:54:55;11.57;;;1.80;;
54539;SDS011;40438;52.992;18.604;2023-02-18T09:57:22;10.55;;;1.60;;
54539;SDS011;40438;52.992;18.604;2023-02-18T09:59:51;9.23;;;1.80;;
54539;SDS011;40438;52.992;18.604;2023-02-18T10:02:23;6.28;;;1.90;;
54539;SDS011;40438;52.992;18.604;2023-02-18T10:04:49;9.15;;;1.88;;
54539;SDS011;40438;52.992;18.604;2023-02-18T10:07:17;10.55;;;1.63;;
54539;SDS011;40438;52.992;18.604;2023-02-18T10:09:49;12.23;;;1.63;;
54539;SDS011;40438;52.992;18.604;2023-02-18T10:12:17;6.97;;;1.60;;
54539;SDS011;40438;52.992;18.604;2023-02-18T10:14:46;9.40;;;1.63;;
54539;SDS011;40438;52.992;18.604;2023-02-18T10:17:14;10.10;;;1.75;;
54539;SDS011;40438;52.992;18.604;2023-02-18T10:19:41;8.73;;;1.70;;
54539;SDS011;40438;52.992;18.604;2023-02-18T10:22:10;10.07;;;2.22;;
54539;SDS011;40438;52.992;18.604;2023-02-18T10:24:40;7.45;;;1.48;;
54539;SDS011;40438;52.992;18.604;2023-02-18T10:27:09;6.13;;;1.67;;
54539;SDS011;40438;52.992;18.604;2023-02-18T10:29:40;8.15;;;1.95;;
54539;SDS011;40438;52.992;18.604;2023-02-18T10:32:06;8.70;;;1.40;;
54539;SDS011;40438;52.992;18.604;2023-02-18T10:34:43;4.65;;;1.63;;
54539;SDS011;40438;52.992;18.604;2023-02-18T10:40:03;3.75;;;1.27;;
54539;SDS011;40438;52.992;18.604;2023-02-18T10:42:38;8.90;;;1.83;;
54539;SDS011;40438;52.992;18.604;2023-02-18T10:45:13;7.60;;;1.38;;
54539;SDS011;40438;52.992;18.604;2023-02-18T10:47:51;3.25;;;1.15;;
54539;SDS011;40438;52.992;18.604;2023-02-18T10:50:27;4.47;;;1.30;;
54539;SDS011;40438;52.992;18.604;2023-02-18T10:52:58;5.82;;;1.50;;
54539;SDS011;40438;52.992;18.604;2023-02-18T10:55:33;6.40;;;1.40;;
54539;SDS011;40438;52.992;18.604;2023-02-18T10:58:01;7.70;;;2.30;;
54539;SDS011;40438;52.992;18.604;2023-02-18T11:00:32;3.88;;;1.55;;
54539;SDS011;40438;52.992;18.604;2023-02-18T11:03:07;6.95;;;1.40;;
54539;SDS011;40438;52.992;18.604;2023-02-18T11:05:39;5.13;;;1.30;;
54539;SDS011;40438;52.992;18.604;2023-02-18T11:08:06;5.20;;;1.20;;
54539;SDS011;40438;52.992;18.604;2023-02-18T11:10:34;7.03;;;1.30;;
54539;SDS011;40438;52.992;18.604;2023-02-18T11:13:06;4.70;;;1.30;;
54539;SDS011;40438;52.992;18.604;2023-02-18T11:15:33;6.03;;;1.60;;
54539;SDS011;40438;52.992;18.604;2023-02-18T11:18:10;4.43;;;1.27;;
54539;SDS011;40438;52.992;18.604;2023-02-18T11:20:38;5.22;;;1.15;;
54539;SDS011;40438;52.992;18.604;2023-02-18T11:23:17;3.00;;;1.10;;
54539;SDS011;40438;52.992;18.604;2023-02-18T11:25:55;5.40;;;1.42;;
54539;SDS011;40438;52.992;18.604;2023-02-18T11:28:29;5.95;;;1.40;;
54539;SDS011;40438;52.992;18.604;2023-02-18T11:31:05;7.78;;;1.65;;
54539;SDS011;40438;52.992;18.604;2023-02-18T11:33:33;11.00;;;1.80;;
54539;SDS011;40438;52.992;18.604;2023-02-18T11:36:03;5.03;;;1.63;;
54539;SDS011;40438;52.992;18.604;2023-02-18T11:38:37;4.40;;;1.20;;
54539;SDS011;40438;52.992;18.604;2023-02-18T11:41:09;4.88;;;1.50;;
54539;SDS011;40438;52.992;18.604;2023-02-18T11:43:41;5.63;;;1.60;;
54539;SDS011;40438;52.992;18.604;2023-02-18T11:46:08;6.60;;;1.90;;
54539;SDS011;40438;52.992;18.604;2023-02-18T11:48:35;6.25;;;1.60;;
54539;SDS011;40438;52.992;18.604;2023-02-18T11:51:01;6.30;;;1.80;;
54539;SDS011;40438;52.992;18.604;2023-02-18T11:53:29;5.78;;;1.48;;
54539;SDS011;40438;52.992;18.604;2023-02-18T11:55:56;5.38;;;1.70;;
54539;SDS011;40438;52.992;18.604;2023-02-18T11:58:23;7.03;;;1.40;;
54539;SDS011;40438;52.992;18.604;2023-02-18T12:00:52;8.38;;;1.30;;
54539;SDS011;40438;52.992;18.604;2023-02-18T12:03:22;6.47;;;1.30;;
54539;SDS011;40438;52.992;18.604;2023-02-18T12:05:55;4.63;;;1.38;;
54539;SDS011;40438;52.992;18.604;2023-02-18T12:08:23;4.85;;;1.42;;
54539;SDS011;40438;52.992;18.604;2023-02-18T12:10:52;3.63;;;1.48;;
54539;SDS011;40438;52.992;18.604;2023-02-18T12:13:22;3.50;;;1.45;;
54539;SDS011;40438;52.992;18.604;2023-02-18T12:15:53;5.68;;;1.23;;
54539;SDS011;40438;52.992;18.604;2023-02-18T12:18:35;5.75;;;1.55;;
54539;SDS011;40438;52.992;18.604;2023-02-18T12:21:23;4.70;;;1.30;;
54539;SDS011;40438;52.992;18.604;2023-02-18T12:24:00;3.55;;;1.50;;
54539;SDS011;40438;52.992;18.604;2023-02-18T12:26:35;2.58;;;1.25;;
54539;SDS011;40438;52.992;18.604;2023-02-18T12:29:13;5.95;;;1.30;;
54539;SDS011;40438;52.992;18.604;2023-02-18T12:31:55;4.75;;;1.23;;
54539;SDS011;40438;52.992;18.604;2023-02-18T12:34:33;8.32;;;1.92;;
54539;SDS011;40438;52.992;18.604;2023-02-18T12:37:11;3.60;;;1.52;;
54539;SDS011;40438;52.992;18.604;2023-02-18T12:39:58;5.00;;;1.13;;
54539;SDS011;40438;52.992;18.604;2023-02-18T12:42:37;3.75;;;1.10;;
54539;SDS011;40438;52.992;18.604;2023-02-18T12:45:25;4.13;;;1.25;;
54539;SDS011;40438;52.992;18.604;2023-02-18T12:48:23;3.42;;;1.08;;
54539;SDS011;40438;52.992;18.604;2023-02-18T12:51:03;4.85;;;1.40;;
54539;SDS011;40438;52.992;18.604;2023-02-18T12:56:44;5.15;;;1.33;;
54539;SDS011;40438;52.992;18.604;2023-02-18T12:59:24;6.03;;;1.33;;
54539;SDS011;40438;52.992;18.604;2023-02-18T13:02:05;5.22;;;1.38;;
54539;SDS011;40438;52.992;18.604;2023-02-18T13:04:51;5.90;;;1.25;;
54539;SDS011;40438;52.992;18.604;2023-02-18T13:07:26;8.95;;;1.92;;
54539;SDS011;40438;52.992;18.604;2023-02-18T13:10:21;4.32;;;1.48;;
54539;SDS011;40438;52.992;18.604;2023-02-18T13:13:07;6.85;;;1.65;;
54539;SDS011;40438;52.992;18.604;2023-02-18T13:15:36;5.47;;;1.40;;
54539;SDS011;40438;52.992;18.604;2023-02-18T13:18:08;3.75;;;1.23;;
54539;SDS011;40438;52.992;18.604;2023-02-18T13:20:39;5.45;;;1.45;;
54539;SDS011;40438;52.992;18.604;2023-02-18T13:23:08;4.32;;;1.63;;
54539;SDS011;40438;52.992;18.604;2023-02-18T13:25:41;6.75;;;1.85;;
54539;SDS011;40438;52.992;18.604;2023-02-18T13:28:11;4.07;;;1.63;;
54539;SDS011;40438;52.992;18.604;2023-02-18T13:30:43;5.53;;;1.38;;
54539;SDS011;40438;52.992;18.604;2023-02-18T13:33:13;5.60;;;1.40;;
54539;SDS011;40438;52.992;18.604;2023-02-18T13:35:47;3.35;;;1.20;;
54539;SDS011;40438;52.992;18.604;2023-02-18T13:41:19;3.00;;;1.10;;
54539;SDS011;40438;52.992;18.604;2023-02-18T13:43:46;2.85;;;1.33;;
54539;SDS011;40438;52.992;18.604;2023-02-18T13:46:12;3.42;;;1.23;;
54539;SDS011;40438;52.992;18.604;2023-02-18T13:48:41;4.07;;;1.20;;
54539;SDS011;40438;52.992;18.604;2023-02-18T13:51:11;3.67;;;1.17;;
54539;SDS011;40438;52.992;18.604;2023-02-18T13:53:39;3.75;;;1.58;;
54539;SDS011;40438;52.992;18.604;2023-02-18T13:56:08;6.80;;;1.48;;
54539;SDS011;40438;52.992;18.604;2023-02-18T13:58:39;3.25;;;1.30;;
54539;SDS011;40438;52.992;18.604;2023-02-18T14:01:12;3.63;;;1.15;;
54539;SDS011;40438;52.992;18.604;2023-02-18T14:09:50;3.15;;;1.30;;
54539;SDS011;40438;52.992;18.604;2023-02-18T14:12:23;5.25;;;1.48;;
54539;SDS011;40438;52.992;18.604;2023-02-18T14:14:51;5.85;;;1.40;;
54539;SDS011;40438;52.992;18.604;2023-02-18T14:26:15;4.57;;;1.30;;
54539;SDS011;40438;52.992;18.604;2023-02-18T14:28:48;4.38;;;1.10;;
54539;SDS011;40438;52.992;18.604;2023-02-18T14:31:26;4.63;;;1.13;;
54539;SDS011;40438;52.992;18.604;2023-02-18T14:34:06;5.18;;;1.50;;
54539;SDS011;40438;52.992;18.604;2023-02-18T14:37:08;3.53;;;1.45;;
54539;SDS011;40438;52.992;18.604;2023-02-18T14:39:48;2.17;;;1.02;;
54539;SDS011;40438;52.992;18.604;2023-02-18T14:42:26;3.55;;;1.20;;
54539;SDS011;40438;52.992;18.604;2023-02-18T14:45:06;4.72;;;0.90;;
54539;SDS011;40438;52.992;18.604;2023-02-18T14:47:40;2.28;;;0.90;;
54539;SDS011;40438;52.992;18.604;2023-02-18T14:50:19;3.50;;;1.60;;
54539;SDS011;40438;52.992;18.604;2023-02-18T14:52:46;2.90;;;1.33;;
54539;SDS011;40438;52.992;18.604;2023-02-18T14:55:15;2.03;;;0.90;;
54539;SDS011;40438;52.992;18.604;2023-02-18T14:57:48;5.28;;;2.08;;
54539;SDS011;40438;52.992;18.604;2023-02-18T15:00:17;2.72;;;1.10;;
54539;SDS011;40438;52.992;18.604;2023-02-18T15:02:46;4.43;;;1.20;;
54539;SDS011;40438;52.992;18.604;2023-02-18T15:05:14;5.53;;;1.75;;
54539;SDS011;40438;52.992;18.604;2023-02-18T15:07:41;3.35;;;1.08;;
54539;SDS011;40438;52.992;18.604;2023-02-18T15:10:12;3.92;;;1.17;;
54539;SDS011;40438;52.992;18.604;2023-02-18T15:12:38;4.65;;;1.30;;
54539;SDS011;40438;52.992;18.604;2023-02-18T15:15:06;4.20;;;1.23;;
54539;SDS011;40438;52.992;18.604;2023-02-18T15:17:36;7.32;;;1.20;;
54539;SDS011;40438;52.992;18.604;2023-02-18T15:20:10;6.18;;;1.35;;
54539;SDS011;40438;52.992;18.604;2023-02-18T15:22:37;5.38;;;1.17;;